Time;durP1;ratioP1;P1;durP2;ratioP2;P2;SDS_P1;SDS_P2;PMS_P1;PMS_P2;Temp;Humidity;BMP_temperature;BMP_pressure;BME280_temperature;BME280_humidity;BME280_pressure;Samples;Min_cycle;Max_cycle;Signal;HPM_P1;HPM_P2
2021/08/22 00:00:14;0.00;0.00;0.62;0.00;0.00;0.62;4.60;4.20;;;27.70;37.60;;;;;;2254383;61;20380;-64
2021/08/22 00:02:59;0.00;0.00;0.62;0.00;0.00;0.62;4.80;4.40;;;27.70;37.50;;;;;;2254071;61;20359;-65
2021/08/22 00:05:44;0.00;0.00;0.62;0.00;0.00;0.62;4.93;4.50;;;27.70;37.50;;;;;;2254075;61;20403;-62
2021/08/22 00:08:29;0.00;0.00;0.62;0.00;0.00;0.62;5.20;4.70;;;27.70;37.50;;;;;;2254072;61;20379;-63
2021/08/22 00:11:15;0.00;0.00;0.62;0.00;0.00;0.62;5.23;4.70;;;27.70;37.50;;;;;;2254193;61;20359;-63
2021/08/22 00:13:59;0.00;0.00;0.62;0.00;0.00;0.62;5.97;5.37;;;27.70;37.50;;;;;;2254066;61;20367;-61
2021/08/22 00:16:44;0.00;0.00;0.62;0.00;0.00;0.62;5.47;5.07;;;27.70;37.50;;;;;;2254288;61;20465;-60
2021/08/22 00:19:29;0.00;0.00;0.62;0.00;0.00;0.62;5.60;5.10;;;27.70;37.50;;;;;;2253853;61;20419;-65
2021/08/22 00:22:14;0.00;0.00;0.62;0.00;0.00;0.62;5.63;5.03;;;27.70;37.50;;;;;;2254183;61;20415;-63
2021/08/22 00:24:59;0.00;0.00;0.62;0.00;0.00;0.62;5.50;5.00;;;27.70;37.40;;;;;;2253890;61;20633;-61
2021/08/22 00:27:45;0.00;0.00;0.62;0.00;0.00;0.62;5.93;5.33;;;27.70;37.40;;;;;;2253998;61;20398;-62
2021/08/22 00:30:29;0.00;0.00;0.62;0.00;0.00;0.62;6.10;5.50;;;27.70;37.40;;;;;;2254283;61;20612;-62
2021/08/22 00:33:13;0.00;0.00;0.62;0.00;0.00;0.62;6.20;5.60;;;27.70;37.40;;;;;;2254155;61;20364;-61
2021/08/22 00:35:58;0.00;0.00;0.62;0.00;0.00;0.62;6.77;6.17;;;27.70;37.40;;;;;;2254180;61;20752;-62
2021/08/22 00:38:43;0.00;0.00;0.62;0.00;0.00;0.62;5.20;4.70;;;27.70;37.30;;;;;;2254284;61;20419;-64
2021/08/22 00:41:29;0.00;0.00;0.62;0.00;0.00;0.62;5.83;5.33;;;27.70;37.30;;;;;;2253942;61;20388;-64
2021/08/22 00:44:15;0.00;0.00;0.62;0.00;0.00;0.62;5.83;5.33;;;27.70;37.30;;;;;;2254176;61;20356;-62
2021/08/22 00:47:02;0.00;0.00;0.62;0.00;0.00;0.62;6.27;5.77;;;27.70;37.30;;;;;;2254183;61;20463;-63
2021/08/22 00:49:47;0.00;0.00;0.62;0.00;0.00;0.62;5.80;5.20;;;27.70;37.30;;;;;;2253902;61;20647;-64
2021/08/22 00:52:33;0.00;0.00;0.62;0.00;0.00;0.62;5.47;4.97;;;27.70;37.30;;;;;;2254168;61;20359;-63
2021/08/22 00:55:17;0.00;0.00;0.62;0.00;0.00;0.62;6.67;5.97;;;27.70;37.30;;;;;;2253946;61;20723;-63
2021/08/22 00:58:03;0.00;0.00;0.62;0.00;0.00;0.62;5.67;5.17;;;27.70;37.30;;;;;;2253559;61;20384;-61
2021/08/22 01:00:49;0.00;0.00;0.62;0.00;0.00;0.62;5.80;5.20;;;27.60;37.30;;;;;;2254219;61;20360;-61
2021/08/22 01:03:45;0.00;0.00;0.62;0.00;0.00;0.62;6.10;5.50;;;27.60;37.30;;;;;;2253872;61;20364;-62
2021/08/22 01:06:38;0.00;0.00;0.62;0.00;0.00;0.62;6.07;5.47;;;27.60;37.30;;;;;;2254093;61;20411;-64
2021/08/22 01:09:29;0.00;0.00;0.62;0.00;0.00;0.62;5.13;4.63;;;27.60;37.40;;;;;;2254083;61;20384;-68
2021/08/22 01:12:21;0.00;0.00;0.62;0.00;0.00;0.62;6.70;5.13;;;27.60;37.50;;;;;;2253889;61;20404;-67
2021/08/22 01:15:10;0.00;0.00;0.62;0.00;0.00;0.62;5.50;5.00;;;27.60;37.50;;;;;;2254173;61;20570;-66
2021/08/22 01:17:57;0.00;0.00;0.62;0.00;0.00;0.62;8.77;5.70;;;27.60;37.40;;;;;;2253392;61;20391;-66
2021/08/22 01:20:48;0.00;0.00;0.62;0.00;0.00;0.62;5.60;5.10;;;27.60;37.50;;;;;;2253850;61;20364;-64
2021/08/22 01:23:36;0.00;0.00;0.62;0.00;0.00;0.62;5.43;4.93;;;27.60;37.40;;;;;;2254187;61;20367;-62
2021/08/22 01:26:26;0.00;0.00;0.62;0.00;0.00;0.62;5.97;5.13;;;27.60;37.40;;;;;;2253501;61;20403;-67
2021/08/22 01:29:11;0.00;0.00;0.62;0.00;0.00;0.62;5.30;4.80;;;27.50;37.40;;;;;;2254074;61;20415;-65
2021/08/22 01:32:02;0.00;0.00;0.62;0.00;0.00;0.62;7.27;4.80;;;27.50;37.40;;;;;;2253843;61;20444;-66
2021/08/22 01:34:48;0.00;0.00;0.62;0.00;0.00;0.62;5.80;5.17;;;27.50;37.40;;;;;;2253686;61;20435;-66
2021/08/22 01:37:33;0.00;0.00;0.62;0.00;0.00;0.62;6.67;5.57;;;27.50;37.40;;;;;;2254052;61;20360;-65
2021/08/22 01:40:21;0.00;0.00;0.62;0.00;0.00;0.62;6.77;5.93;;;27.50;37.40;;;;;;2253776;61;20404;-62
2021/08/22 01:43:06;0.00;0.00;0.62;0.00;0.00;0.62;6.70;6.00;;;27.50;37.40;;;;;;2253993;61;20436;-65
2021/08/22 01:45:55;0.00;0.00;0.62;0.00;0.00;0.62;6.87;6.17;;;27.50;37.40;;;;;;2254025;61;20435;-64
2021/08/22 01:48:40;0.00;0.00;0.62;0.00;0.00;0.62;6.73;6.03;;;27.50;37.50;;;;;;2253288;61;20395;-64
2021/08/22 01:51:27;0.00;0.00;0.62;0.00;0.00;0.62;6.50;5.80;;;27.50;37.50;;;;;;2253989;61;20403;-66
2021/08/22 01:54:12;0.00;0.00;0.62;0.00;0.00;0.62;5.80;5.23;;;27.50;37.50;;;;;;2253685;61;20455;-65
2021/08/22 01:56:56;0.00;0.00;0.62;0.00;0.00;0.62;6.33;5.73;;;27.40;37.50;;;;;;2253625;61;20364;-63
2021/08/22 01:59:40;0.00;0.00;0.62;0.00;0.00;0.62;6.63;6.00;;;27.40;37.40;;;;;;2253951;61;20382;-65
2021/08/22 02:02:25;0.00;0.00;0.62;0.00;0.00;0.62;6.20;4.93;;;27.50;37.60;;;;;;2253678;61;20380;-67
2021/08/22 02:05:12;0.00;0.00;0.62;0.00;0.00;0.62;6.00;5.40;;;27.40;37.50;;;;;;2253866;61;20360;-66
2021/08/22 02:07:59;0.00;0.00;0.62;0.00;0.00;0.62;5.90;5.30;;;27.40;37.60;;;;;;2253598;61;20383;-67
2021/08/22 02:10:50;0.00;0.00;0.62;0.00;0.00;0.62;8.13;5.80;;;27.40;37.60;;;;;;2253458;61;20434;-67
2021/08/22 02:13:40;0.00;0.00;0.62;0.00;0.00;0.62;5.80;5.07;;;27.40;37.60;;;;;;2254022;61;20391;-65
2021/08/22 02:16:28;0.00;0.00;0.62;0.00;0.00;0.62;5.80;5.30;;;27.40;37.70;;;;;;2253593;61;20406;-66
2021/08/22 02:19:14;0.00;0.00;0.62;0.00;0.00;0.62;6.10;5.47;;;27.40;37.70;;;;;;2253715;61;20384;-65
2021/08/22 02:21:59;0.00;0.00;0.62;0.00;0.00;0.62;6.07;5.20;;;27.40;37.70;;;;;;2253940;61;20407;-67
2021/08/22 02:24:45;0.00;0.00;0.62;0.00;0.00;0.62;5.27;4.87;;;27.40;37.70;;;;;;2253556;61;20728;-68
2021/08/22 02:27:31;0.00;0.00;0.62;0.00;0.00;0.62;6.33;5.07;;;27.30;37.60;;;;;;2253965;61;20391;-64
2021/08/22 02:30:15;0.00;0.00;0.62;0.00;0.00;0.62;5.60;5.10;;;27.40;37.70;;;;;;2253423;61;20446;-65
2021/08/22 02:33:01;0.00;0.00;0.62;0.00;0.00;0.62;5.87;5.37;;;27.30;37.60;;;;;;2252932;61;20372;-65
2021/08/22 02:35:46;0.00;0.00;0.62;0.00;0.00;0.62;5.03;4.63;;;27.30;37.60;;;;;;2253968;61;20359;-66
2021/08/22 02:38:30;0.00;0.00;0.62;0.00;0.00;0.62;5.00;4.60;;;27.30;37.60;;;;;;2253532;61;20406;-66
2021/08/22 02:41:17;0.00;0.00;0.62;0.00;0.00;0.62;6.27;4.80;;;27.30;37.60;;;;;;2253261;61;20363;-65
2021/08/22 02:44:02;0.00;0.00;0.62;0.00;0.00;0.62;5.10;4.70;;;27.30;37.60;;;;;;2253936;61;20364;-64
2021/08/22 02:46:47;0.00;0.00;0.62;0.00;0.00;0.62;6.00;5.27;;;27.20;37.60;;;;;;2253544;61;20384;-66
2021/08/22 02:49:32;0.00;0.00;0.62;0.00;0.00;0.62;5.93;5.33;;;27.20;37.60;;;;;;2253572;61;20812;-62
2021/08/22 02:52:16;0.00;0.00;0.62;0.00;0.00;0.62;5.60;5.00;;;27.20;37.60;;;;;;2253793;61;20468;-64
2021/08/22 02:55:01;0.00;0.00;0.62;0.00;0.00;0.62;6.23;5.63;;;27.20;37.70;;;;;;2253450;61;20367;-62
2021/08/22 02:57:47;0.00;0.00;0.62;0.00;0.00;0.62;8.63;5.33;;;27.20;37.70;;;;;;2253970;61;20383;-64
2021/08/22 03:00:31;0.00;0.00;0.62;0.00;0.00;0.62;6.53;5.67;;;27.20;37.70;;;;;;2253670;61;20367;-65
2021/08/22 03:03:16;0.00;0.00;0.62;0.00;0.00;0.62;6.47;5.60;;;27.20;37.80;;;;;;2253635;61;20399;-65
2021/08/22 03:06:00;0.00;0.00;0.62;0.00;0.00;0.62;6.73;6.03;;;27.20;37.80;;;;;;2253708;61;20496;-66
2021/08/22 03:08:45;0.00;0.00;0.62;0.00;0.00;0.62;5.47;4.97;;;27.20;37.80;;;;;;2253421;61;20378;-63
2021/08/22 03:11:30;0.00;0.00;0.62;0.00;0.00;0.62;5.17;4.70;;;27.20;37.80;;;;;;2253629;61;20595;-65
2021/08/22 03:14:16;0.00;0.00;0.62;0.00;0.00;0.62;6.10;5.50;;;27.10;37.80;;;;;;2253743;61;20376;-65
2021/08/22 03:17:01;0.00;0.00;0.62;0.00;0.00;0.62;5.43;4.93;;;27.10;37.80;;;;;;2253196;61;20712;-62
2021/08/22 03:19:45;0.00;0.00;0.62;0.00;0.00;0.62;6.27;5.23;;;27.10;37.80;;;;;;2254458;61;20384;-64
2021/08/22 03:22:30;0.00;0.00;0.62;0.00;0.00;0.62;4.50;4.10;;;27.10;37.80;;;;;;2254514;61;20739;-64
2021/08/22 03:25:14;0.00;0.00;0.62;0.00;0.00;0.62;5.30;4.80;;;27.10;37.80;;;;;;2254171;61;20407;-66
2021/08/22 03:27:59;0.00;0.00;0.62;0.00;0.00;0.62;5.47;4.97;;;27.10;37.80;;;;;;2254273;61;20456;-63
2021/08/22 03:30:45;0.00;0.00;0.62;0.00;0.00;0.62;5.30;4.80;;;27.10;37.80;;;;;;2254254;61;20363;-61
2021/08/22 03:33:29;0.00;0.00;0.62;0.00;0.00;0.62;5.10;4.70;;;27.00;37.80;;;;;;2254171;61;20712;-66
2021/08/22 03:36:14;0.00;0.00;0.62;0.00;0.00;0.62;5.10;4.50;;;27.00;37.80;;;;;;2254432;61;20380;-61
2021/08/22 03:38:59;0.00;0.00;0.62;0.00;0.00;0.62;5.70;4.43;;;27.00;37.80;;;;;;2254033;61;20382;-64
2021/08/22 03:41:43;0.00;0.00;0.62;0.00;0.00;0.62;4.83;4.33;;;27.00;37.90;;;;;;2254365;61;20451;-66
2021/08/22 03:44:28;0.00;0.00;0.62;0.00;0.00;0.62;4.80;4.30;;;27.00;37.90;;;;;;2254081;61;20363;-66
2021/08/22 03:47:13;0.00;0.00;0.62;0.00;0.00;0.62;5.23;4.73;;;27.00;37.90;;;;;;2253828;61;20641;-67
2021/08/22 03:49:58;0.00;0.00;0.62;0.00;0.00;0.62;6.63;5.03;;;27.00;37.80;;;;;;2254229;61;20430;-63
2021/08/22 03:52:43;0.00;0.00;0.62;0.00;0.00;0.62;5.63;4.97;;;27.00;37.90;;;;;;2254172;61;20771;-63
2021/08/22 03:55:28;0.00;0.00;0.62;0.00;0.00;0.62;4.90;4.50;;;27.00;37.90;;;;;;2254099;61;20578;-65
2021/08/22 03:58:12;0.00;0.00;0.62;0.00;0.00;0.62;5.10;4.60;;;26.90;37.80;;;;;;2254288;61;20410;-64
2021/08/22 04:00:57;0.00;0.00;0.62;0.00;0.00;0.62;5.53;4.47;;;26.90;37.80;;;;;;2254161;61;20359;-64
2021/08/22 04:03:43;0.00;0.00;0.62;0.00;0.00;0.62;5.37;4.87;;;26.90;37.80;;;;;;2254367;61;20359;-65
2021/08/22 04:06:53;0.00;0.00;0.62;0.00;0.00;0.62;5.20;4.70;;;26.90;37.80;;;;;;2254181;61;20772;-63
2021/08/22 04:09:38;0.00;0.00;0.62;0.00;0.00;0.62;5.90;5.40;;;26.90;37.90;;;;;;2253976;61;20799;-66
2021/08/22 04:12:23;0.00;0.00;0.62;0.00;0.00;0.62;6.50;5.90;;;27.00;37.80;;;;;;2254344;61;20373;-65
2021/08/22 04:15:09;0.00;0.00;0.62;0.00;0.00;0.62;5.83;5.27;;;26.90;37.60;;;;;;2253987;61;20368;-64
2021/08/22 04:17:53;0.00;0.00;0.62;0.00;0.00;0.62;6.40;5.80;;;26.90;37.60;;;;;;2253967;61;20356;-66
2021/08/22 04:20:40;0.00;0.00;0.62;0.00;0.00;0.62;6.30;5.80;;;26.80;37.60;;;;;;2254350;61;20410;-62
2021/08/22 04:23:24;0.00;0.00;0.62;0.00;0.00;0.62;7.20;6.10;;;26.80;37.70;;;;;;2253833;61;20742;-64
2021/08/22 04:26:09;0.00;0.00;0.62;0.00;0.00;0.62;8.13;6.70;;;26.70;37.70;;;;;;2254215;61;20422;-63
2021/08/22 04:28:54;0.00;0.00;0.62;0.00;0.00;0.62;7.07;6.47;;;26.60;37.70;;;;;;2254015;61;20383;-64
2021/08/22 04:31:38;0.00;0.00;0.62;0.00;0.00;0.62;9.80;6.33;;;26.60;37.90;;;;;;2253746;61;20368;-62
2021/08/22 04:34:23;0.00;0.00;0.62;0.00;0.00;0.62;8.17;7.10;;;26.50;38.00;;;;;;2254310;61;20723;-62
2021/08/22 04:37:09;0.00;0.00;0.62;0.00;0.00;0.62;7.83;6.60;;;26.40;38.30;;;;;;2253931;61;20728;-65
2021/08/22 04:39:55;0.00;0.00;0.62;0.00;0.00;0.62;8.57;7.87;;;26.40;38.40;;;;;;2253975;61;20400;-61
2021/08/22 04:42:40;0.00;0.00;0.62;0.00;0.00;0.62;8.00;7.20;;;26.30;38.60;;;;;;2254330;61;20372;-67
2021/08/22 04:45:24;0.00;0.00;0.62;0.00;0.00;0.62;8.63;7.67;;;26.20;38.90;;;;;;2253882;61;20360;-64
2021/08/22 04:48:09;0.00;0.00;0.62;0.00;0.00;0.62;8.00;7.20;;;26.20;39.10;;;;;;2254031;61;20364;-64
2021/08/22 04:50:54;0.00;0.00;0.62;0.00;0.00;0.62;9.33;7.70;;;26.10;39.50;;;;;;2254236;61;20364;-65
2021/08/22 04:53:40;0.00;0.00;0.62;0.00;0.00;0.62;6.67;5.97;;;26.00;39.70;;;;;;2253638;61;20764;-63
2021/08/22 04:56:24;0.00;0.00;0.62;0.00;0.00;0.62;7.70;6.90;;;25.90;39.80;;;;;;2254231;61;20363;-66
2021/08/22 04:59:09;0.00;0.00;0.62;0.00;0.00;0.62;7.17;6.47;;;25.90;39.90;;;;;;2253927;61;20456;-64
2021/08/22 05:01:54;0.00;0.00;0.62;0.00;0.00;0.62;7.87;6.40;;;25.80;40.00;;;;;;2253933;61;20399;-65
2021/08/22 05:04:38;0.00;0.00;0.62;0.00;0.00;0.62;5.83;5.33;;;25.80;40.30;;;;;;2254396;61;20735;-62
2021/08/22 05:07:23;0.00;0.00;0.62;0.00;0.00;0.62;6.43;5.80;;;25.80;40.40;;;;;;2253649;61;20787;-64
2021/08/22 05:10:10;0.00;0.00;0.62;0.00;0.00;0.62;7.90;6.53;;;25.80;40.40;;;;;;2253927;61;20383;-67
2021/08/22 05:12:55;0.00;0.00;0.62;0.00;0.00;0.62;7.43;6.30;;;25.80;40.40;;;;;;2254079;61;20407;-66
2021/08/22 05:15:41;0.00;0.00;0.62;0.00;0.00;0.62;6.87;6.17;;;25.80;40.40;;;;;;2253578;61;20414;-61
2021/08/22 05:18:26;0.00;0.00;0.62;0.00;0.00;0.62;6.67;6.07;;;25.80;40.40;;;;;;2254042;61;20410;-64
2021/08/22 05:21:10;0.00;0.00;0.62;0.00;0.00;0.62;7.57;6.20;;;25.80;40.40;;;;;;2253478;61;20444;-63
2021/08/22 05:23:55;0.00;0.00;0.62;0.00;0.00;0.62;6.87;6.17;;;25.90;40.50;;;;;;2253851;61;20423;-65
2021/08/22 05:26:41;0.00;0.00;0.62;0.00;0.00;0.62;7.13;6.40;;;25.90;40.50;;;;;;2254069;61;20503;-64
2021/08/22 05:29:25;0.00;0.00;0.62;0.00;0.00;0.62;6.73;5.80;;;25.90;40.50;;;;;;2253652;61;21111;-64
2021/08/22 05:32:10;0.00;0.00;0.62;0.00;0.00;0.62;7.73;6.40;;;25.90;40.50;;;;;;2253478;61;20467;-63
2021/08/22 05:34:55;0.00;0.00;0.62;0.00;0.00;0.62;6.60;5.40;;;25.90;40.50;;;;;;2254078;61;20808;-65
2021/08/22 05:37:39;0.00;0.00;0.62;0.00;0.00;0.62;7.00;6.40;;;25.90;40.50;;;;;;2253478;61;20760;-65
2021/08/22 05:40:24;0.00;0.00;0.62;0.00;0.00;0.62;7.23;5.97;;;26.00;40.60;;;;;;2254074;61;20423;-65
2021/08/22 05:43:10;0.00;0.00;0.62;0.00;0.00;0.62;7.87;6.00;;;26.00;40.50;;;;;;2253872;61;20367;-64
2021/08/22 05:45:54;0.00;0.00;0.62;0.00;0.00;0.62;7.03;5.70;;;26.00;40.50;;;;;;2253825;61;20388;-64
2021/08/22 05:48:39;0.00;0.00;0.62;0.00;0.00;0.62;9.37;6.10;;;26.00;40.70;;;;;;2253417;61;20756;-66
2021/08/22 05:51:23;0.00;0.00;0.62;0.00;0.00;0.62;7.50;6.77;;;26.00;40.50;;;;;;2253781;61;20366;-67
2021/08/22 05:54:08;0.00;0.00;0.62;0.00;0.00;0.62;8.07;6.23;;;26.00;40.50;;;;;;2253808;61;20767;-62
2021/08/22 05:56:53;0.00;0.00;0.62;0.00;0.00;0.62;6.33;5.73;;;26.10;40.60;;;;;;2253831;61;20578;-64
2021/08/22 05:59:39;0.00;0.00;0.62;0.00;0.00;0.62;7.40;5.87;;;26.10;40.60;;;;;;2253636;61;20456;-62
2021/08/22 06:02:23;0.00;0.00;0.62;0.00;0.00;0.62;7.07;6.37;;;26.10;40.80;;;;;;2254053;61;20364;-64
2021/08/22 06:05:09;0.00;0.00;0.62;0.00;0.00;0.62;5.90;5.30;;;26.10;40.80;;;;;;2253976;61;20379;-63
2021/08/22 06:07:54;0.00;0.00;0.62;0.00;0.00;0.62;5.77;5.27;;;26.10;40.90;;;;;;2253138;61;20363;-68
2021/08/22 06:10:39;0.00;0.00;0.62;0.00;0.00;0.62;6.03;5.43;;;26.20;40.90;;;;;;2253923;61;20363;-62
2021/08/22 06:13:23;0.00;0.00;0.62;0.00;0.00;0.62;6.63;5.13;;;26.20;40.90;;;;;;2253716;61;20356;-65
2021/08/22 06:16:09;0.00;0.00;0.62;0.00;0.00;0.62;7.10;5.17;;;26.20;40.90;;;;;;2253650;61;20519;-65
2021/08/22 06:18:54;0.00;0.00;0.62;0.00;0.00;0.62;6.03;5.43;;;26.20;40.80;;;;;;2253883;61;20617;-63
2021/08/22 06:21:38;0.00;0.00;0.62;0.00;0.00;0.62;5.43;4.57;;;26.20;40.70;;;;;;2253760;61;20562;-63
2021/08/22 06:24:23;0.00;0.00;0.62;0.00;0.00;0.62;5.53;5.03;;;26.30;40.80;;;;;;2253940;61;20629;-63
2021/08/22 06:27:07;0.00;0.00;0.62;0.00;0.00;0.62;5.40;4.90;;;26.30;40.80;;;;;;2253864;61;20446;-64
2021/08/22 06:29:52;0.00;0.00;0.62;0.00;0.00;0.62;5.30;4.80;;;26.30;40.80;;;;;;2252959;61;20384;-62
2021/08/22 06:32:38;0.00;0.00;0.62;0.00;0.00;0.62;4.80;4.40;;;26.30;40.80;;;;;;2253562;61;20406;-62
2021/08/22 06:35:22;0.00;0.00;0.62;0.00;0.00;0.62;7.90;5.17;;;26.40;40.80;;;;;;2253658;61;20364;-63
2021/08/22 06:38:07;0.00;0.00;0.62;0.00;0.00;0.62;5.67;5.07;;;26.40;40.80;;;;;;2253539;61;20363;-66
2021/08/22 06:40:51;0.00;0.00;0.62;0.00;0.00;0.62;5.50;4.70;;;26.40;40.80;;;;;;2253806;61;20400;-63
2021/08/22 06:43:36;0.00;0.00;0.62;0.00;0.00;0.62;5.43;5.00;;;26.50;40.90;;;;;;2253651;61;20582;-65
2021/08/22 06:46:20;0.00;0.00;0.62;0.00;0.00;0.62;5.90;5.30;;;26.50;40.90;;;;;;2253595;61;20672;-64
2021/08/22 06:49:07;0.00;0.00;0.62;0.00;0.00;0.62;5.20;4.80;;;26.50;40.90;;;;;;2253703;61;20756;-61
2021/08/22 06:51:51;0.00;0.00;0.62;0.00;0.00;0.62;5.63;4.83;;;26.50;40.90;;;;;;2253087;61;20363;-63
2021/08/22 06:54:38;0.00;0.00;0.62;0.00;0.00;0.62;7.30;5.20;;;26.50;40.90;;;;;;2253723;61;20387;-67
2021/08/22 06:57:22;0.00;0.00;0.62;0.00;0.00;0.62;5.53;4.90;;;26.60;41.00;;;;;;2253527;61;20428;-67
2021/08/22 07:00:09;0.00;0.00;0.62;0.00;0.00;0.62;5.00;4.50;;;26.60;41.00;;;;;;2253565;61;20387;-64
2021/08/22 07:02:54;0.00;0.00;0.62;0.00;0.00;0.62;5.03;4.60;;;26.60;41.00;;;;;;2253843;61;20363;-65
2021/08/22 07:05:39;0.00;0.00;0.62;0.00;0.00;0.62;4.60;4.20;;;26.60;41.60;;;;;;2253551;61;20364;-65
2021/08/22 07:08:24;0.00;0.00;0.62;0.00;0.00;0.62;6.03;5.40;;;26.70;41.00;;;;;;2252914;61;20373;-63
2021/08/22 07:11:08;0.00;0.00;0.62;0.00;0.00;0.62;5.53;4.97;;;26.70;41.00;;;;;;2253872;61;20239;-63
2021/08/22 07:13:52;0.00;0.00;0.62;0.00;0.00;0.62;5.43;4.93;;;26.70;41.00;;;;;;2253349;61;20387;-65
2021/08/22 07:16:38;0.00;0.00;0.62;0.00;0.00;0.62;5.87;5.27;;;26.70;40.80;;;;;;2253721;61;20368;-63
2021/08/22 07:19:23;0.00;0.00;0.62;0.00;0.00;0.62;6.73;6.03;;;26.70;40.70;;;;;;2253752;61;20455;-63
2021/08/22 07:22:08;0.00;0.00;0.62;0.00;0.00;0.62;8.13;5.47;;;26.70;40.70;;;;;;2253433;61;20375;-62
2021/08/22 07:24:53;0.00;0.00;0.62;0.00;0.00;0.62;6.60;5.90;;;26.70;40.80;;;;;;2253747;61;20403;-61
2021/08/22 07:27:37;0.00;0.00;0.62;0.00;0.00;0.62;7.23;4.90;;;26.60;40.90;;;;;;2253437;61;20429;-61
2021/08/22 07:30:22;0.00;0.00;0.62;0.00;0.00;0.62;6.43;5.83;;;26.60;41.00;;;;;;2253294;61;20439;-62
2021/08/22 07:33:07;0.00;0.00;0.62;0.00;0.00;0.62;6.10;5.50;;;26.50;40.90;;;;;;2253649;61;20415;-63
2021/08/22 07:35:52;0.00;0.00;0.62;0.00;0.00;0.62;6.30;5.60;;;26.50;40.90;;;;;;2253300;61;20594;-64
2021/08/22 07:38:38;0.00;0.00;0.62;0.00;0.00;0.62;5.77;5.27;;;26.40;40.80;;;;;;2253583;61;20637;-62
2021/08/22 07:41:22;0.00;0.00;0.62;0.00;0.00;0.62;6.53;5.67;;;26.40;41.00;;;;;;2253853;61;20483;-61
2021/08/22 07:43:48;0.00;0.00;0.62;0.00;0.00;0.62;5.97;5.37;;;26.30;41.20;;;;;;2253204;61;20341;-64
2021/08/22 07:46:14;0.00;0.00;0.62;0.00;0.00;0.62;5.40;4.90;;;26.30;41.40;;;;;;2253660;61;20391;-68
2021/08/22 07:48:40;0.00;0.00;0.62;0.00;0.00;0.62;6.20;5.70;;;26.30;41.40;;;;;;2253420;61;20399;-62
2021/08/22 07:51:06;0.00;0.00;0.62;0.00;0.00;0.62;6.60;5.90;;;26.30;42.20;;;;;;2253240;61;20357;-63
2021/08/22 07:53:32;0.00;0.00;0.62;0.00;0.00;0.62;6.07;5.57;;;26.20;41.50;;;;;;2253211;61;20356;-62
2021/08/22 07:56:03;0.00;0.00;0.62;0.00;0.00;0.62;6.40;5.80;;;26.20;41.60;;;;;;2253601;61;20348;-64
2021/08/22 07:58:29;0.00;0.00;0.62;0.00;0.00;0.62;5.83;5.23;;;26.20;41.70;;;;;;2253113;61;20375;-64
2021/08/22 08:00:55;0.00;0.00;0.62;0.00;0.00;0.62;5.43;4.93;;;26.20;41.70;;;;;;2253666;61;20353;-62
2021/08/22 08:03:21;0.00;0.00;0.62;0.00;0.00;0.62;6.37;5.40;;;26.20;41.80;;;;;;2253757;61;20349;-63
2021/08/22 08:05:49;0.00;0.00;0.62;0.00;0.00;0.62;6.10;5.53;;;26.20;42.50;;;;;;2253641;61;20547;-62
2021/08/22 08:08:15;0.00;0.00;0.62;0.00;0.00;0.62;5.80;5.30;;;26.20;41.90;;;;;;2254134;61;20367;-62
2021/08/22 08:10:41;0.00;0.00;0.62;0.00;0.00;0.62;5.87;5.37;;;26.20;42.00;;;;;;2254148;61;20784;-63
2021/08/22 08:13:08;0.00;0.00;0.62;0.00;0.00;0.62;5.80;5.20;;;26.20;42.00;;;;;;2253756;61;20357;-62
2021/08/22 08:15:34;0.00;0.00;0.62;0.00;0.00;0.62;5.80;5.20;;;26.10;42.10;;;;;;2254348;61;20352;-64
2021/08/22 08:18:00;0.00;0.00;0.62;0.00;0.00;0.62;5.00;4.63;;;26.10;42.10;;;;;;2254372;61;20348;-62
2021/08/22 08:20:26;0.00;0.00;0.62;0.00;0.00;0.62;6.40;5.27;;;26.00;42.10;;;;;;2253800;61;20592;-63
2021/08/22 08:22:52;0.00;0.00;0.62;0.00;0.00;0.62;5.10;4.60;;;26.00;42.30;;;;;;2254279;61;20440;-63
2021/08/22 08:25:18;0.00;0.00;0.62;0.00;0.00;0.62;4.73;4.33;;;26.00;42.30;;;;;;2254192;61;20471;-67
2021/08/22 08:27:44;0.00;0.00;0.62;0.00;0.00;0.62;5.10;4.60;;;26.00;42.40;;;;;;2253635;61;20380;-62
2021/08/22 08:30:12;0.00;0.00;0.62;0.00;0.00;0.62;4.73;4.33;;;26.00;43.20;;;;;;2254206;61;20400;-62
2021/08/22 08:32:39;0.00;0.00;0.62;0.00;0.00;0.62;5.37;4.60;;;26.00;42.60;;;;;;2254249;61;20365;-61
2021/08/22 08:35:06;0.00;0.00;0.62;0.00;0.00;0.62;5.33;4.80;;;26.10;42.60;;;;;;2253781;61;20356;-63
2021/08/22 08:37:32;0.00;0.00;0.62;0.00;0.00;0.62;5.40;4.90;;;26.10;42.50;;;;;;2254152;61;20377;-66
2021/08/22 08:39:58;0.00;0.00;0.62;0.00;0.00;0.62;4.57;4.13;;;26.10;43.10;;;;;;2254189;61;20443;-62
2021/08/22 08:42:24;0.00;0.00;0.62;0.00;0.00;0.62;5.07;4.57;;;26.20;42.50;;;;;;2253685;61;20424;-66
2021/08/22 08:44:54;0.00;0.00;0.62;0.00;0.00;0.62;5.57;4.20;;;26.20;42.50;;;;;;2253647;61;20349;-64
2021/08/22 08:47:23;0.00;0.00;0.62;0.00;0.00;0.62;5.37;4.87;;;26.20;42.50;;;;;;2254034;61;20415;-64
2021/08/22 08:49:55;0.00;0.00;0.62;0.00;0.00;0.62;6.27;5.00;;;26.20;42.60;;;;;;2253695;61;20383;-61
2021/08/22 08:52:27;0.00;0.00;0.62;0.00;0.00;0.62;5.10;4.60;;;26.20;42.60;;;;;;2254167;61;20345;-63
2021/08/22 08:54:53;0.00;0.00;0.62;0.00;0.00;0.62;4.90;4.50;;;26.30;42.60;;;;;;2253573;61;20353;-61
2021/08/22 08:57:19;0.00;0.00;0.62;0.00;0.00;0.62;5.33;3.93;;;26.30;42.60;;;;;;2253732;61;20341;-61
2021/08/22 08:59:45;0.00;0.00;0.62;0.00;0.00;0.62;5.37;4.10;;;26.30;42.60;;;;;;2254210;61;20372;-61
2021/08/22 09:02:11;0.00;0.00;0.62;0.00;0.00;0.62;6.03;4.80;;;26.30;42.60;;;;;;2254095;61;20557;-63
2021/08/22 09:04:41;0.00;0.00;0.62;0.00;0.00;0.62;4.70;4.20;;;26.40;42.60;;;;;;2253839;61;20364;-63
2021/08/22 09:08:11;0.00;0.00;0.62;0.00;0.00;0.62;4.77;4.37;;;26.40;42.60;;;;;;2253554;61;20381;-62
2021/08/22 09:11:32;0.00;0.00;0.62;0.00;0.00;0.62;5.17;3.77;;;26.40;42.60;;;;;;2253122;61;20359;-63
2021/08/22 09:14:46;0.00;0.00;0.62;0.00;0.00;0.62;4.50;4.10;;;26.50;42.80;;;;;;2249749;61;20704;-61
2021/08/22 09:18:19;0.00;0.00;0.62;0.00;0.00;0.62;4.57;4.10;;;26.40;42.90;;;;;;2247230;61;20599;-62
2021/08/22 09:21:49;0.00;0.00;0.62;0.00;0.00;0.62;5.00;4.37;;;26.40;43.00;;;;;;2253431;61;20384;-62
2021/08/22 09:25:12;0.00;0.00;0.62;0.00;0.00;0.62;4.80;4.40;;;26.40;43.20;;;;;;2252105;61;20364;-65
2021/08/22 09:28:42;0.00;0.00;0.62;0.00;0.00;0.62;4.90;4.27;;;26.30;43.20;;;;;;2253545;61;20389;-62
2021/08/22 09:32:29;0.00;0.00;0.62;0.00;0.00;0.62;4.30;3.90;;;26.30;43.40;;;;;;2253473;61;20360;-61
2021/08/22 09:36:24;0.00;0.00;0.62;0.00;0.00;0.62;4.70;4.20;;;26.30;43.50;;;;;;2249090;61;20364;-63
2021/08/22 09:40:19;0.00;0.00;0.62;0.00;0.00;0.62;6.10;4.90;;;26.30;43.80;;;;;;2241706;61;20381;-64
2021/08/22 09:44:04;0.00;0.00;0.62;0.00;0.00;0.62;4.90;4.40;;;26.30;44.00;;;;;;2245866;61;20448;-62
2021/08/22 09:47:44;0.00;0.00;0.62;0.00;0.00;0.62;3.60;3.30;;;26.20;44.10;;;;;;2255062;61;20673;-65
2021/08/22 09:51:34;0.00;0.00;0.62;0.00;0.00;0.62;5.20;4.63;;;26.20;44.10;;;;;;2253746;61;20463;-63
2021/08/22 09:55:30;0.00;0.00;0.62;0.00;0.00;0.62;6.37;5.77;;;26.20;44.30;;;;;;2248948;61;20589;-63
2021/08/22 09:59:15;0.00;0.00;0.62;0.00;0.00;0.62;6.10;5.50;;;26.30;44.30;;;;;;2253634;61;20618;-64
2021/08/22 10:02:34;0.00;0.00;0.62;0.00;0.00;0.62;5.27;4.60;;;26.30;44.50;;;;;;2253740;61;20392;-65
2021/08/22 10:05:57;0.00;0.00;0.62;0.00;0.00;0.62;5.17;4.67;;;26.30;44.50;;;;;;2251070;61;20371;-62
2021/08/22 10:08:52;0.00;0.00;0.62;0.00;0.00;0.62;4.70;4.30;;;26.40;44.50;;;;;;2253355;61;20380;-65
2021/08/22 10:11:39;0.00;0.00;0.62;0.00;0.00;0.62;5.00;4.50;;;26.40;44.50;;;;;;2253548;61;20359;-59
2021/08/22 10:14:29;0.00;0.00;0.62;0.00;0.00;0.62;5.20;4.80;;;26.50;44.40;;;;;;2253759;61;20367;-61
2021/08/22 10:17:18;0.00;0.00;0.62;0.00;0.00;0.62;6.23;5.70;;;26.50;44.30;;;;;;2252067;61;20376;-63
2021/08/22 10:20:12;0.00;0.00;0.62;0.00;0.00;0.62;5.50;5.03;;;26.50;44.30;;;;;;2251312;61;20395;-62
2021/08/22 10:22:51;0.00;0.00;0.62;0.00;0.00;0.62;5.70;5.20;;;26.60;44.20;;;;;;2246902;61;20634;-61
2021/08/22 10:25:49;0.00;0.00;0.62;0.00;0.00;0.62;8.97;5.80;;;26.60;44.10;;;;;;2282765;58;20383;-61
2021/08/22 10:28:59;0.00;0.00;0.62;0.00;0.00;0.62;6.00;5.50;;;26.70;44.10;;;;;;2253339;61;20426;-64
2021/08/22 10:32:11;0.00;0.00;0.62;0.00;0.00;0.62;5.50;5.10;;;26.70;43.90;;;;;;2246347;47;20737;-62
2021/08/22 10:35:20;0.00;0.00;0.62;0.00;0.00;0.62;5.63;5.23;;;26.70;43.80;;;;;;2253254;46;20380;-63
2021/08/22 10:38:28;0.00;0.00;0.62;0.00;0.00;0.62;5.93;4.37;;;26.80;43.90;;;;;;2252410;61;20751;-62
2021/08/22 10:41:34;0.00;0.00;0.62;0.00;0.00;0.62;5.40;5.00;;;26.80;43.80;;;;;;2248209;61;20788;-62
2021/08/22 10:44:38;0.00;0.00;0.62;0.00;0.00;0.62;6.57;4.90;;;26.90;43.90;;;;;;2246102;61;20380;-62
2021/08/22 10:47:41;0.00;0.00;0.62;0.00;0.00;0.62;6.20;4.90;;;26.90;43.80;;;;;;2256868;61;20449;-61
2021/08/22 10:50:29;0.00;0.00;0.62;0.00;0.00;0.62;5.60;5.10;;;26.90;43.80;;;;;;2255597;61;20386;-62
2021/08/22 10:53:23;0.00;0.00;0.62;0.00;0.00;0.62;5.87;4.47;;;27.00;43.70;;;;;;2256142;61;20355;-62
2021/08/22 10:56:37;0.00;0.00;0.62;0.00;0.00;0.62;5.33;4.90;;;27.00;43.60;;;;;;2308533;53;20366;-61
2021/08/22 10:59:28;0.00;0.00;0.62;0.00;0.00;0.62;6.07;5.57;;;27.00;43.50;;;;;;2255490;61;20597;-60